Cape Porpoise, Maine
Current Conditions -  °F | °C
As of 6:55 PM on Wednesday 28 Jan 2015 (Local Time) from KSFM Reporting Station
Clear Clear  
Wind Chill:   Ceiling: Unl
Heat Index: 18°   Visibility: 10mi
Dew Point:   Wind: 6mph
Humidity: 63%   Direction: 300°WNW
Pressure: 30.09"   Gusts: NA
Location:  43.37°N, 70.44°W
Report Text: KSFM 282355Z AUTO 30005KT 10SM CLR M08/M14 A3009 RMK AO1 60005 11040 21080 410401100 52034
Loading
Personal Weather Stations






























Interactive Weather Map New forecast layout! Learn more

10-Day Weather Forecast

Advertisements
Track Severe Weather on mobile